Time;durP1;ratioP1;P1;durP2;ratioP2;P2;SDS_P1;SDS_P2;PMS_P1;PMS_P2;Temp;Humidity;BMP_temperature;BMP_pressure;BME280_temperature;BME280_humidity;BME280_pressure;Samples;Min_cycle;Max_cycle;Signal;HPM_P1;HPM_P2
2022/01/05 00:01:09;;;;;;;0.87;0.87;;;;;;;;;;5093707;28;20449;-78
2022/01/05 00:03:35;;;;;;;1.20;1.10;;;;;;;;;;5093643;28;20875;-77
2022/01/05 00:06:01;;;;;;;1.20;1.10;;;;;;;;;;5093473;28;20409;-78
2022/01/05 00:08:27;;;;;;;2.30;1.13;;;;;;;;;;5093637;28;20397;-77
2022/01/05 00:10:53;;;;;;;1.47;0.97;;;;;;;;;;5093485;28;20953;-78
2022/01/05 00:13:19;;;;;;;1.23;0.83;;;;;;;;;;5093502;28;20408;-78
2022/01/05 00:15:45;;;;;;;0.87;0.70;;;;;;;;;;5092146;28;20415;-78
2022/01/05 00:18:11;;;;;;;0.97;0.80;;;;;;;;;;5093466;28;20412;-77
2022/01/05 00:20:37;;;;;;;1.03;1.00;;;;;;;;;;5093296;28;20860;-78
2022/01/05 00:23:04;;;;;;;1.00;0.80;;;;;;;;;;5093401;28;20489;-77
2022/01/05 00:25:30;;;;;;;1.00;0.90;;;;;;;;;;5093191;28;20412;-78
2022/01/05 00:27:56;;;;;;;0.87;0.87;;;;;;;;;;5093411;28;20399;-78
2022/01/05 00:30:22;;;;;;;0.90;0.90;;;;;;;;;;5093312;28;20423;-76
2022/01/05 00:32:48;;;;;;;0.80;0.70;;;;;;;;;;5093335;28;20395;-79
2022/01/05 00:35:14;;;;;;;0.80;0.80;;;;;;;;;;5093356;28;20887;-75
2022/01/05 00:37:40;;;;;;;1.20;0.70;;;;;;;;;;5093335;28;20875;-78
2022/01/05 00:40:06;;;;;;;0.60;0.60;;;;;;;;;;5093097;28;20466;-74
2022/01/05 00:42:33;;;;;;;0.80;0.53;;;;;;;;;;5093255;28;20409;-76
2022/01/05 00:44:59;;;;;;;0.50;0.50;;;;;;;;;;5095409;28;20782;-72
2022/01/05 00:47:25;;;;;;;0.90;0.70;;;;;;;;;;5096153;28;20927;-73
2022/01/05 00:49:51;;;;;;;0.73;0.70;;;;;;;;;;5097361;28;20425;-78
2022/01/05 00:52:17;;;;;;;0.60;0.57;;;;;;;;;;5096060;28;20406;-78
2022/01/05 00:54:43;;;;;;;0.70;0.60;;;;;;;;;;5097474;28;20414;-78
2022/01/05 00:57:09;;;;;;;0.70;0.63;;;;;;;;;;5095894;28;20400;-78
2022/01/05 00:59:35;;;;;;;0.80;0.80;;;;;;;;;;5096818;28;20483;-78
2022/01/05 01:02:01;;;;;;;0.77;0.60;;;;;;;;;;5096948;28;20783;-76
2022/01/05 01:04:27;;;;;;;0.60;0.60;;;;;;;;;;5097053;28;20412;-78
2022/01/05 01:06:53;;;;;;;0.67;0.60;;;;;;;;;;5095703;28;20410;-78
2022/01/05 01:09:19;;;;;;;0.83;0.50;;;;;;;;;;5095709;28;20409;-78
2022/01/05 01:11:45;;;;;;;0.60;0.50;;;;;;;;;;5096974;28;20441;-78
2022/01/05 01:14:11;;;;;;;0.50;0.40;;;;;;;;;;5095634;28;20424;-78
2022/01/05 01:16:37;;;;;;;0.60;0.60;;;;;;;;;;5096793;28;20405;-79
2022/01/05 01:19:03;;;;;;;0.63;0.60;;;;;;;;;;5095347;28;20415;-78
2022/01/05 01:21:29;;;;;;;0.60;0.60;;;;;;;;;;5096817;28;20412;-77
2022/01/05 01:23:56;;;;;;;1.00;0.60;;;;;;;;;;5096766;28;20432;-77
2022/01/05 01:26:23;;;;;;;2.50;1.13;;;;;;;;;;5095363;28;20431;-77
2022/01/05 01:28:49;;;;;;;0.60;0.57;;;;;;;;;;5096512;28;20402;-76
2022/01/05 01:31:15;;;;;;;0.90;0.50;;;;;;;;;;5096608;28;20415;-77
2022/01/05 01:33:41;;;;;;;0.60;0.60;;;;;;;;;;5096501;28;20457;-77
2022/01/05 01:36:07;;;;;;;0.60;0.50;;;;;;;;;;5095115;28;20824;-77
2022/01/05 01:38:33;;;;;;;1.00;0.53;;;;;;;;;;5096405;28;20441;-77
2022/01/05 01:40:59;;;;;;;0.70;0.53;;;;;;;;;;5096379;28;20474;-72
2022/01/05 01:43:25;;;;;;;0.50;0.50;;;;;;;;;;5096215;28;20512;-77
2022/01/05 01:45:51;;;;;;;0.60;0.60;;;;;;;;;;5094866;28;20911;-75
2022/01/05 01:48:17;;;;;;;0.70;0.70;;;;;;;;;;5096229;28;20410;-75
2022/01/05 01:50:45;;;;;;;1.57;0.50;;;;;;;;;;5096227;28;20950;-73
2022/01/05 01:53:11;;;;;;;0.70;0.60;;;;;;;;;;5096125;28;20414;-77
2022/01/05 01:55:37;;;;;;;0.50;0.50;;;;;;;;;;5095927;28;20438;-78
2022/01/05 01:58:04;;;;;;;0.60;0.60;;;;;;;;;;5096130;28;20410;-77
2022/01/05 02:00:30;;;;;;;0.60;0.60;;;;;;;;;;5095704;28;20477;-77
2022/01/05 02:02:57;;;;;;;0.60;0.50;;;;;;;;;;5094672;28;20409;-74
2022/01/05 02:05:23;;;;;;;0.60;0.50;;;;;;;;;;5095833;28;20928;-78
2022/01/05 02:07:49;;;;;;;0.60;0.50;;;;;;;;;;5095856;28;20960;-72
2022/01/05 02:10:16;;;;;;;0.80;0.70;;;;;;;;;;5095854;28;20396;-77
2022/01/05 02:12:42;;;;;;;0.60;0.60;;;;;;;;;;5095898;28;20440;-75
2022/01/05 02:15:09;;;;;;;0.70;0.50;;;;;;;;;;5094499;28;20415;-75
2022/01/05 02:17:48;;;;;;;0.50;0.50;;;;;;;;;;5095682;28;20917;-75
2022/01/05 02:20:19;;;;;;;0.60;0.60;;;;;;;;;;5095719;28;20464;-76
2022/01/05 02:22:46;;;;;;;0.70;0.60;;;;;;;;;;5094335;28;20420;-77
2022/01/05 02:25:12;;;;;;;0.50;0.50;;;;;;;;;;5094244;28;20419;-75
2022/01/05 02:27:39;;;;;;;0.63;0.63;;;;;;;;;;5094150;28;20762;-77
2022/01/05 02:30:05;;;;;;;0.70;0.70;;;;;;;;;;5095403;28;20423;-77
2022/01/05 02:32:31;;;;;;;0.73;0.63;;;;;;;;;;5095484;28;20453;-74
2022/01/05 02:34:57;;;;;;;0.80;0.67;;;;;;;;;;5095351;28;20490;-73
2022/01/05 02:37:23;;;;;;;1.00;0.60;;;;;;;;;;5094078;28;20454;-71
2022/01/05 02:39:49;;;;;;;1.83;0.57;;;;;;;;;;5095345;28;20523;-72
2022/01/05 02:42:25;;;;;;;1.00;0.70;;;;;;;;;;5095295;28;20793;-73
2022/01/05 02:44:51;;;;;;;0.80;0.80;;;;;;;;;;5095152;28;20936;-72
2022/01/05 02:47:17;;;;;;;0.90;0.70;;;;;;;;;;5095158;28;20414;-72
2022/01/05 02:49:43;;;;;;;1.00;0.67;;;;;;;;;;5095232;28;20414;-72
2022/01/05 02:52:09;;;;;;;0.70;0.70;;;;;;;;;;5094670;28;20396;-77
2022/01/05 02:54:35;;;;;;;1.23;0.70;;;;;;;;;;5093691;28;20412;-77
2022/01/05 02:57:01;;;;;;;0.90;0.80;;;;;;;;;;5094902;28;20957;-77
2022/01/05 02:59:28;;;;;;;1.53;0.70;;;;;;;;;;5093276;28;20507;-77
2022/01/05 03:01:54;;;;;;;0.63;0.63;;;;;;;;;;5094808;28;20458;-76
2022/01/05 03:04:20;;;;;;;0.70;0.70;;;;;;;;;;5094844;28;20416;-77
2022/01/05 03:06:46;;;;;;;0.73;0.70;;;;;;;;;;5093924;28;20426;-77
2022/01/05 03:09:12;;;;;;;1.17;0.60;;;;;;;;;;5094570;28;20500;-77
2022/01/05 03:11:38;;;;;;;2.10;0.60;;;;;;;;;;5094491;28;20441;-76
2022/01/05 03:14:04;;;;;;;1.03;0.70;;;;;;;;;;5094559;28;20396;-76
2022/01/05 03:16:30;;;;;;;0.60;0.60;;;;;;;;;;5094485;28;20404;-77
2022/01/05 03:18:57;;;;;;;0.90;0.90;;;;;;;;;;5094245;28;20755;-77
2022/01/05 03:21:22;;;;;;;1.10;0.80;;;;;;;;;;5094373;28;20786;-77
2022/01/05 03:23:49;;;;;;;0.97;0.97;;;;;;;;;;5094013;28;20411;-77
2022/01/05 03:26:15;;;;;;;0.70;0.70;;;;;;;;;;5094420;28;20423;-77
2022/01/05 03:28:41;;;;;;;0.70;0.70;;;;;;;;;;5094207;28;20411;-77
2022/01/05 03:31:07;;;;;;;1.60;0.70;;;;;;;;;;5094302;28;20755;-77
2022/01/05 03:33:33;;;;;;;1.00;0.60;;;;;;;;;;5094229;28;20402;-77
2022/01/05 03:35:59;;;;;;;0.60;0.60;;;;;;;;;;5092979;28;20414;-76
2022/01/05 03:38:28;;;;;;;0.60;0.50;;;;;;;;;;5093984;28;20397;-74
2022/01/05 03:40:54;;;;;;;0.60;0.50;;;;;;;;;;5092802;28;21039;-72
2022/01/05 03:43:20;;;;;;;0.50;0.50;;;;;;;;;;5094055;28;20392;-71
2022/01/05 03:45:47;;;;;;;0.60;0.60;;;;;;;;;;5095221;28;20825;-72
2022/01/05 03:48:14;;;;;;;0.53;0.53;;;;;;;;;;5092951;28;20469;-77
2022/01/05 03:50:40;;;;;;;0.50;0.50;;;;;;;;;;5092602;28;20922;-76
2022/01/05 03:53:07;;;;;;;0.80;0.73;;;;;;;;;;5092690;28;20764;-77
2022/01/05 03:55:34;;;;;;;0.70;0.60;;;;;;;;;;5092671;28;20481;-77
2022/01/05 03:58:00;;;;;;;0.90;0.60;;;;;;;;;;5093702;28;20401;-75
2022/01/05 04:00:28;;;;;;;0.90;0.70;;;;;;;;;;5093447;28;20481;-76
2022/01/05 04:02:54;;;;;;;0.60;0.50;;;;;;;;;;5093649;28;20892;-76
2022/01/05 04:05:20;;;;;;;0.60;0.50;;;;;;;;;;5093706;28;20414;-77
2022/01/05 04:07:46;;;;;;;0.67;0.50;;;;;;;;;;5093513;28;20409;-77
2022/01/05 04:10:12;;;;;;;0.50;0.40;;;;;;;;;;5093561;28;20417;-77
2022/01/05 04:12:38;;;;;;;0.60;0.50;;;;;;;;;;5092334;28;20400;-77
2022/01/05 04:15:04;;;;;;;2.80;0.60;;;;;;;;;;5093552;28;20499;-77
2022/01/05 04:17:30;;;;;;;1.00;0.50;;;;;;;;;;5093450;28;20622;-77
2022/01/05 04:19:56;;;;;;;0.70;0.57;;;;;;;;;;5092534;28;20463;-77
2022/01/05 04:22:22;;;;;;;0.50;0.50;;;;;;;;;;5093495;28;20402;-77
2022/01/05 04:24:48;;;;;;;0.50;0.47;;;;;;;;;;5093341;28;20492;-77
2022/01/05 04:27:15;;;;;;;0.70;0.43;;;;;;;;;;5093424;28;20477;-77
2022/01/05 04:29:42;;;;;;;0.60;0.50;;;;;;;;;;5092054;28;20405;-76
2022/01/05 04:32:08;;;;;;;0.77;0.60;;;;;;;;;;5093430;28;20439;-78
2022/01/05 04:34:34;;;;;;;0.60;0.60;;;;;;;;;;5093339;28;20408;-77
2022/01/05 04:37:00;;;;;;;0.70;0.60;;;;;;;;;;5091886;28;20580;-71
2022/01/05 04:39:26;;;;;;;0.90;0.60;;;;;;;;;;5094140;28;20980;-72
2022/01/05 04:41:52;;;;;;;0.90;0.60;;;;;;;;;;5093564;28;20489;-77
2022/01/05 04:44:18;;;;;;;0.90;0.60;;;;;;;;;;5093113;28;20936;-77
2022/01/05 04:46:44;;;;;;;0.60;0.60;;;;;;;;;;5093140;28;20401;-77
2022/01/05 04:49:10;;;;;;;0.50;0.50;;;;;;;;;;5093047;28;20412;-76
2022/01/05 04:51:36;;;;;;;2.30;0.60;;;;;;;;;;5092004;28;20396;-76
2022/01/05 04:54:02;;;;;;;0.90;0.60;;;;;;;;;;5093131;28;20884;-76
2022/01/05 04:56:28;;;;;;;0.50;0.50;;;;;;;;;;5092975;28;20421;-76
2022/01/05 04:58:56;;;;;;;0.80;0.80;;;;;;;;;;5091623;28;20458;-75
2022/01/05 05:01:22;;;;;;;1.80;0.60;;;;;;;;;;5091754;28;20539;-76
2022/01/05 05:03:48;;;;;;;0.60;0.60;;;;;;;;;;5092915;28;20457;-76
2022/01/05 05:06:14;;;;;;;1.10;0.60;;;;;;;;;;5093028;28;20397;-77
2022/01/05 05:08:40;;;;;;;0.60;0.50;;;;;;;;;;5092979;28;20748;-76
2022/01/05 05:11:06;;;;;;;1.50;0.67;;;;;;;;;;5093031;28;20397;-76
2022/01/05 05:13:32;;;;;;;0.70;0.63;;;;;;;;;;5092883;28;20751;-76
2022/01/05 05:15:58;;;;;;;0.90;0.67;;;;;;;;;;5092881;28;20961;-76
2022/01/05 05:18:24;;;;;;;0.50;0.50;;;;;;;;;;5092818;28;20439;-77
2022/01/05 05:20:50;;;;;;;2.30;0.60;;;;;;;;;;5092800;28;20554;-77
2022/01/05 05:23:17;;;;;;;0.70;0.70;;;;;;;;;;5092721;28;20429;-77
2022/01/05 05:25:43;;;;;;;1.00;0.60;;;;;;;;;;5092860;28;20413;-77
2022/01/05 05:28:09;;;;;;;0.60;0.60;;;;;;;;;;5092897;28;20402;-76
2022/01/05 05:30:36;;;;;;;0.80;0.80;;;;;;;;;;5094198;28;20427;-75
2022/01/05 05:33:02;;;;;;;1.03;0.80;;;;;;;;;;5096457;28;20482;-75
2022/01/05 05:35:28;;;;;;;2.50;0.80;;;;;;;;;;5096471;28;20447;-75
2022/01/05 05:37:54;;;;;;;0.83;0.83;;;;;;;;;;5096351;28;20424;-74
2022/01/05 05:40:21;;;;;;;1.10;1.00;;;;;;;;;;5096325;28;20466;-74
2022/01/05 05:42:47;;;;;;;1.00;0.80;;;;;;;;;;5096388;28;20434;-74
2022/01/05 05:45:13;;;;;;;1.07;0.97;;;;;;;;;;5096290;28;20401;-74
2022/01/05 05:47:39;;;;;;;1.43;1.00;;;;;;;;;;5096437;28;20464;-74
2022/01/05 05:50:05;;;;;;;0.90;0.90;;;;;;;;;;5096316;28;20906;-76
2022/01/05 05:52:31;;;;;;;1.30;1.20;;;;;;;;;;5096205;28;20892;-76
2022/01/05 05:54:57;;;;;;;1.00;0.90;;;;;;;;;;5096211;28;20416;-75
2022/01/05 05:57:23;;;;;;;1.13;1.03;;;;;;;;;;5096027;28;20409;-75
2022/01/05 05:59:49;;;;;;;1.10;0.97;;;;;;;;;;5095750;28;20985;-75
2022/01/05 06:02:15;;;;;;;0.83;0.83;;;;;;;;;;5094659;28;20452;-75
2022/01/05 06:04:41;;;;;;;0.93;0.93;;;;;;;;;;5095976;28;20417;-75
2022/01/05 06:07:07;;;;;;;1.37;1.10;;;;;;;;;;5096135;28;20421;-75
2022/01/05 06:09:33;;;;;;;1.50;1.07;;;;;;;;;;5095962;28;20416;-73
2022/01/05 06:11:59;;;;;;;1.10;0.98;;;;;;;;;;5095784;28;20412;-75
2022/01/05 06:14:25;;;;;;;1.03;0.90;;;;;;;;;;5094500;28;20274;-75
2022/01/05 06:16:51;;;;;;;1.10;0.97;;;;;;;;;;5094379;28;20492;-75
2022/01/05 06:19:17;;;;;;;0.83;0.80;;;;;;;;;;5095590;28;20455;-76
2022/01/05 06:21:44;;;;;;;1.10;1.00;;;;;;;;;;5095643;28;20424;-76
2022/01/05 06:24:10;;;;;;;1.10;1.00;;;;;;;;;;5095559;28;20401;-72
2022/01/05 06:26:37;;;;;;;0.93;0.83;;;;;;;;;;5095369;28;20421;-71
2022/01/05 06:29:03;;;;;;;1.80;0.90;;;;;;;;;;5095277;28;20405;-75
2022/01/05 06:31:29;;;;;;;0.90;0.90;;;;;;;;;;5095434;28;20429;-75
2022/01/05 06:33:55;;;;;;;1.17;1.00;;;;;;;;;;5095405;28;20473;-71
2022/01/05 06:36:21;;;;;;;1.13;1.03;;;;;;;;;;5094143;28;20431;-71
2022/01/05 06:38:47;;;;;;;0.80;0.80;;;;;;;;;;5095151;28;20410;-73
2022/01/05 06:41:13;;;;;;;1.60;1.20;;;;;;;;;;5093609;28;20479;-72
2022/01/05 06:43:39;;;;;;;1.43;1.00;;;;;;;;;;5094562;28;20167;-76
2022/01/05 06:46:05;;;;;;;1.93;0.73;;;;;;;;;;5095172;28;20408;-72
2022/01/05 06:48:31;;;;;;;1.00;1.00;;;;;;;;;;5095033;28;20404;-71
2022/01/05 06:50:57;;;;;;;1.10;1.00;;;;;;;;;;5093779;28;20412;-73
2022/01/05 06:53:23;;;;;;;1.00;0.93;;;;;;;;;;5095014;28;20750;-73
2022/01/05 06:55:49;;;;;;;3.27;1.27;;;;;;;;;;5094960;28;20409;-73
2022/01/05 06:58:15;;;;;;;1.47;1.10;;;;;;;;;;5094793;28;20496;-72
2022/01/05 07:00:41;;;;;;;1.37;1.00;;;;;;;;;;5094569;28;20552;-72
2022/01/05 07:03:07;;;;;;;0.80;0.80;;;;;;;;;;5094649;28;20760;-71
2022/01/05 07:05:33;;;;;;;1.30;1.20;;;;;;;;;;5094665;28;20415;-71
2022/01/05 07:07:59;;;;;;;1.40;1.30;;;;;;;;;;5094749;28;20404;-71
2022/01/05 07:10:25;;;;;;;1.10;1.00;;;;;;;;;;5094633;28;20496;-71
2022/01/05 07:12:51;;;;;;;1.10;1.00;;;;;;;;;;5094586;28;20493;-71
2022/01/05 07:15:17;;;;;;;1.60;1.30;;;;;;;;;;5094499;28;20408;-71
2022/01/05 07:17:43;;;;;;;1.20;1.10;;;;;;;;;;5094482;28;20392;-71
2022/01/05 07:20:09;;;;;;;1.73;1.63;;;;;;;;;;5094351;28;20457;-71
2022/01/05 07:22:36;;;;;;;1.83;1.17;;;;;;;;;;5094277;28;20432;-71
2022/01/05 07:25:02;;;;;;;1.40;1.30;;;;;;;;;;5094297;28;20412;-70
2022/01/05 07:27:28;;;;;;;1.80;1.57;;;;;;;;;;5094272;28;20416;-71
2022/01/05 07:29:54;;;;;;;1.37;1.27;;;;;;;;;;5094144;28;20393;-70
2022/01/05 07:32:20;;;;;;;1.40;1.30;;;;;;;;;;5092952;28;20405;-71
2022/01/05 07:34:47;;;;;;;2.30;1.60;;;;;;;;;;5094283;28;20401;-70
2022/01/05 07:37:13;;;;;;;3.73;2.00;;;;;;;;;;5092787;28;20409;-71
2022/01/05 07:39:39;;;;;;;1.70;1.60;;;;;;;;;;5092866;28;20658;-70
2022/01/05 07:42:05;;;;;;;2.70;1.40;;;;;;;;;;5093990;28;20420;-70
2022/01/05 07:44:31;;;;;;;2.47;1.90;;;;;;;;;;5093889;28;20836;-69
2022/01/05 07:46:57;;;;;;;4.87;1.60;;;;;;;;;;5092554;28;20790;-71
2022/01/05 07:49:23;;;;;;;1.90;1.80;;;;;;;;;;5093821;28;20926;-71
2022/01/05 07:51:49;;;;;;;2.80;1.50;;;;;;;;;;5093837;28;20416;-71
2022/01/05 07:54:15;;;;;;;2.00;1.80;;;;;;;;;;5093620;28;20732;-71
2022/01/05 07:56:41;;;;;;;3.10;1.87;;;;;;;;;;5092540;28;20423;-72
2022/01/05 07:59:07;;;;;;;2.93;1.70;;;;;;;;;;5093414;28;20452;-71
2022/01/05 08:01:33;;;;;;;2.57;2.20;;;;;;;;;;5093622;28;20482;-70
2022/01/05 08:03:59;;;;;;;2.23;2.00;;;;;;;;;;5093732;28;20404;-70
2022/01/05 08:06:25;;;;;;;3.60;2.17;;;;;;;;;;5093579;28;20566;-70
2022/01/05 08:08:51;;;;;;;6.60;3.13;;;;;;;;;;5093600;28;20409;-70
2022/01/05 08:11:18;;;;;;;5.97;2.13;;;;;;;;;;5093615;28;20408;-69
2022/01/05 08:13:44;;;;;;;6.85;2.70;;;;;;;;;;5093578;28;20405;-70
2022/01/05 08:16:10;;;;;;;2.92;2.17;;;;;;;;;;5093598;28;20170;-71
2022/01/05 08:18:36;;;;;;;3.27;2.23;;;;;;;;;;5093246;28;20166;-70
2022/01/05 08:21:02;;;;;;;5.50;2.63;;;;;;;;;;5092158;28;20823;-70
2022/01/05 08:23:29;;;;;;;6.00;3.30;;;;;;;;;;5093225;28;20415;-70
2022/01/05 08:25:55;;;;;;;5.10;2.50;;;;;;;;;;5093270;28;20787;-70
2022/01/05 08:28:21;;;;;;;4.35;2.53;;;;;;;;;;5092023;28;20216;-69
2022/01/05 08:30:47;;;;;;;3.40;2.25;;;;;;;;;;5093257;28;20226;-71
2022/01/05 08:33:14;;;;;;;3.08;2.80;;;;;;;;;;5093266;28;20172;-70
2022/01/05 08:35:40;;;;;;;4.00;2.28;;;;;;;;;;5093227;28;20182;-71
2022/01/05 08:38:06;;;;;;;3.17;2.10;;;;;;;;;;5093061;28;20566;-70
2022/01/05 08:40:33;;;;;;;3.28;2.40;;;;;;;;;;5093146;28;20203;-72
2022/01/05 08:42:59;;;;;;;6.72;2.20;;;;;;;;;;5093026;28;20175;-70
2022/01/05 08:45:26;;;;;;;2.90;1.90;;;;;;;;;;5093093;28;20242;-69
2022/01/05 08:47:53;;;;;;;2.65;2.10;;;;;;;;;;5093009;28;20399;-72
2022/01/05 08:50:20;;;;;;;3.97;1.92;;;;;;;;;;5093155;28;20176;-72
2022/01/05 08:52:47;;;;;;;3.45;2.50;;;;;;;;;;5093006;28;20619;-71
2022/01/05 08:55:14;;;;;;;3.15;2.05;;;;;;;;;;5093034;28;20522;-70
2022/01/05 08:57:40;;;;;;;5.15;2.35;;;;;;;;;;5092860;28;20207;-70
2022/01/05 09:00:07;;;;;;;3.00;2.13;;;;;;;;;;5092623;28;20276;-71
2022/01/05 09:02:33;;;;;;;3.53;1.98;;;;;;;;;;5092845;28;20176;-71
2022/01/05 09:04:59;;;;;;;3.90;1.60;;;;;;;;;;5093472;28;20176;-70
2022/01/05 09:07:25;;;;;;;3.20;2.10;;;;;;;;;;5095634;28;20208;-71
2022/01/05 09:09:51;;;;;;;3.45;2.67;;;;;;;;;;5095737;28;20969;-71
2022/01/05 09:12:17;;;;;;;7.00;2.38;;;;;;;;;;5096888;28;20176;-71
2022/01/05 09:14:43;;;;;;;3.35;1.92;;;;;;;;;;5096797;28;20224;-71
2022/01/05 09:17:10;;;;;;;5.60;1.60;;;;;;;;;;5096809;28;20164;-70
2022/01/05 09:19:36;;;;;;;3.05;1.92;;;;;;;;;;5095326;28;20535;-71
2022/01/05 09:22:02;;;;;;;2.17;1.60;;;;;;;;;;5096795;28;20198;-71
2022/01/05 09:24:28;;;;;;;4.03;2.70;;;;;;;;;;5096513;28;20727;-75
2022/01/05 09:27:02;;;;;;;3.07;2.13;;;;;;;;;;5096590;28;20915;-72
2022/01/05 09:29:28;;;;;;;2.20;1.90;;;;;;;;;;5096610;28;20404;-71
2022/01/05 09:31:54;;;;;;;2.83;1.93;;;;;;;;;;5095060;28;20445;-70
2022/01/05 09:34:20;;;;;;;2.80;1.70;;;;;;;;;;5096513;28;20406;-70
2022/01/05 09:36:50;;;;;;;2.40;2.20;;;;;;;;;;5096415;28;20740;-70
2022/01/05 09:42:01;;;;;;;4.07;1.60;;;;;;;;;;5096325;28;20251;-70
2022/01/05 09:44:34;;;;;;;5.30;2.60;;;;;;;;;;5096163;28;20398;-70
2022/01/05 09:47:00;;;;;;;4.40;2.00;;;;;;;;;;5096083;28;20208;-71
2022/01/05 09:49:29;;;;;;;5.43;2.23;;;;;;;;;;5094910;28;20436;-71
2022/01/05 09:51:56;;;;;;;6.60;2.20;;;;;;;;;;5096016;28;20409;-70
2022/01/05 09:54:22;;;;;;;5.20;2.17;;;;;;;;;;5095953;28;20446;-71
2022/01/05 09:56:50;;;;;;;3.47;2.03;;;;;;;;;;5095898;28;20868;-72
2022/01/05 09:59:16;;;;;;;3.17;1.73;;;;;;;;;;5094356;28;20223;-71
2022/01/05 10:01:42;;;;;;;2.42;2.20;;;;;;;;;;5095895;28;20431;-71
2022/01/05 10:04:08;;;;;;;3.43;1.93;;;;;;;;;;5095818;28;20171;-71
2022/01/05 10:06:37;;;;;;;4.33;2.40;;;;;;;;;;5095976;28;20413;-70
2022/01/05 10:09:03;;;;;;;5.10;3.03;;;;;;;;;;5095706;28;20457;-70
2022/01/05 10:11:29;;;;;;;8.70;2.13;;;;;;;;;;5095746;28;20409;-70
2022/01/05 10:13:55;;;;;;;3.47;1.73;;;;;;;;;;5095712;28;20408;-70
2022/01/05 10:16:21;;;;;;;5.90;2.60;;;;;;;;;;5095622;28;20171;-71
2022/01/05 10:18:47;;;;;;;5.30;1.97;;;;;;;;;;5094226;28;20509;-71
2022/01/05 10:21:14;;;;;;;3.00;1.83;;;;;;;;;;5095432;28;20526;-71
2022/01/05 10:23:46;;;;;;;3.67;2.05;;;;;;;;;;5095343;28;20405;-71
2022/01/05 10:26:22;;;;;;;5.03;1.73;;;;;;;;;;5095542;28;20170;-71
2022/01/05 10:28:49;;;;;;;3.00;1.60;;;;;;;;;;5095293;28;20198;-70
2022/01/05 10:31:16;;;;;;;6.63;1.63;;;;;;;;;;5095313;28;20778;-70
2022/01/05 10:33:42;;;;;;;2.20;1.90;;;;;;;;;;5095326;28;20171;-71
2022/01/05 10:36:08;;;;;;;6.27;1.90;;;;;;;;;;5095335;28;20404;-73
2022/01/05 10:38:34;;;;;;;3.57;1.50;;;;;;;;;;5095226;28;20492;-70
2022/01/05 10:41:14;;;;;;;4.00;1.57;;;;;;;;;;5095069;28;20575;-71
2022/01/05 10:44:00;;;;;;;7.63;2.43;;;;;;;;;;5095136;28;20438;-71
2022/01/05 10:46:36;;;;;;;3.63;2.00;;;;;;;;;;5094909;28;20400;-71
2022/01/05 10:49:04;;;;;;;3.17;1.50;;;;;;;;;;5093738;28;20404;-71
2022/01/05 10:51:30;;;;;;;6.80;2.37;;;;;;;;;;5093795;28;20475;-71
2022/01/05 10:54:16;;;;;;;7.90;1.83;;;;;;;;;;5093698;28;20904;-70
2022/01/05 10:56:42;;;;;;;7.83;1.80;;;;;;;;;;5093630;28;20469;-71
2022/01/05 10:59:09;;;;;;;4.43;1.88;;;;;;;;;;5094575;28;20449;-72
2022/01/05 11:01:35;;;;;;;9.03;2.47;;;;;;;;;;5094753;28;20213;-73
2022/01/05 11:04:20;;;;;;;4.83;1.83;;;;;;;;;;5094621;28;20430;-70
2022/01/05 11:07:03;;;;;;;4.80;2.30;;;;;;;;;;5093350;28;20410;-71
2022/01/05 11:09:30;;;;;;;3.55;1.92;;;;;;;;;;5094638;28;20438;-70
2022/01/05 11:11:56;;;;;;;10.60;2.10;;;;;;;;;;5094607;28;20528;-71
2022/01/05 11:14:34;;;;;;;2.53;1.63;;;;;;;;;;5094552;28;20406;-70
2022/01/05 11:17:02;;;;;;;4.10;1.97;;;;;;;;;;5094504;28;20501;-73
2022/01/05 11:19:28;;;;;;;4.80;1.77;;;;;;;;;;5094205;28;20491;-70
2022/01/05 11:21:55;;;;;;;5.23;1.63;;;;;;;;;;5094418;28;20910;-70
2022/01/05 11:24:22;;;;;;;4.50;1.80;;;;;;;;;;5094060;28;20400;-70
2022/01/05 11:26:48;;;;;;;5.17;1.83;;;;;;;;;;5094267;28;20453;-72
2022/01/05 11:29:15;;;;;;;9.03;1.60;;;;;;;;;;5093671;28;20409;-70
2022/01/05 11:31:42;;;;;;;7.30;2.03;;;;;;;;;;5094086;28;20423;-70
2022/01/05 11:34:08;;;;;;;5.43;1.80;;;;;;;;;;5094117;28;20507;-71
2022/01/05 11:36:34;;;;;;;5.53;1.90;;;;;;;;;;5092814;28;20829;-71
2022/01/05 11:39:00;;;;;;;7.37;2.00;;;;;;;;;;5094034;28;20437;-71
2022/01/05 11:41:26;;;;;;;5.20;1.83;;;;;;;;;;5094118;28;20465;-70
2022/01/05 11:43:52;;;;;;;5.23;1.87;;;;;;;;;;5092500;28;20884;-71
2022/01/05 11:46:19;;;;;;;7.70;1.90;;;;;;;;;;5093919;28;20432;-71
2022/01/05 11:48:59;;;;;;;3.77;1.77;;;;;;;;;;5093801;28;20405;-70
2022/01/05 11:51:32;;;;;;;5.73;2.10;;;;;;;;;;5093972;28;20396;-71
2022/01/05 11:54:15;;;;;;;5.93;2.47;;;;;;;;;;5093852;28;20458;-71
2022/01/05 11:56:42;;;;;;;3.73;2.00;;;;;;;;;;5093838;28;20228;-72
2022/01/05 11:59:19;;;;;;;5.80;1.80;;;;;;;;;;5093607;28;20448;-72
2022/01/05 12:01:57;;;;;;;7.77;2.23;;;;;;;;;;5093762;28;20468;-70
2022/01/05 12:04:23;;;;;;;3.93;1.90;;;;;;;;;;5093634;28;20401;-70
2022/01/05 12:06:49;;;;;;;3.20;1.97;;;;;;;;;;5093536;28;20911;-71
2022/01/05 12:09:19;;;;;;;2.93;1.90;;;;;;;;;;5092280;28;20406;-70
2022/01/05 12:11:45;;;;;;;3.07;2.10;;;;;;;;;;5093508;28;20404;-71
2022/01/05 12:14:23;;;;;;;8.27;2.03;;;;;;;;;;5093619;28;20450;-71
2022/01/05 12:17:07;;;;;;;3.60;2.00;;;;;;;;;;5093351;28;20416;-71
2022/01/05 12:19:56;;;;;;;4.87;1.90;;;;;;;;;;5093365;28;20448;-71
2022/01/05 12:22:23;;;;;;;6.20;2.40;;;;;;;;;;5093182;28;20436;-71
2022/01/05 12:25:00;;;;;;;6.20;1.70;;;;;;;;;;5091977;28;20421;-71
2022/01/05 12:27:26;;;;;;;8.37;1.83;;;;;;;;;;5093298;28;20420;-71
2022/01/05 12:29:52;;;;;;;4.37;2.03;;;;;;;;;;5093212;28;20417;-73
2022/01/05 12:32:33;;;;;;;4.70;2.10;;;;;;;;;;5093187;28;20814;-73
2022/01/05 12:35:07;;;;;;;13.10;2.47;;;;;;;;;;5093255;28;20413;-71
2022/01/05 12:37:52;;;;;;;3.73;1.93;;;;;;;;;;5093179;28;20394;-71
2022/01/05 12:40:21;;;;;;;3.17;1.90;;;;;;;;;;5091025;28;20507;-71
2022/01/05 12:42:47;;;;;;;4.20;1.50;;;;;;;;;;5093113;28;20753;-70
2022/01/05 12:45:31;;;;;;;6.10;1.83;;;;;;;;;;5093233;28;20443;-70
2022/01/05 12:47:57;;;;;;;5.90;1.93;;;;;;;;;;5093071;28;20907;-74
2022/01/05 12:50:31;;;;;;;2.17;1.33;;;;;;;;;;5093053;28;20410;-70
2022/01/05 12:52:58;;;;;;;6.17;1.50;;;;;;;;;;5093141;28;20925;-70
2022/01/05 12:55:24;;;;;;;2.50;1.37;;;;;;;;;;5092982;28;20454;-70
2022/01/05 12:57:54;;;;;;;6.93;1.83;;;;;;;;;;5092935;28;20637;-70
2022/01/05 13:00:20;;;;;;;10.67;2.27;;;;;;;;;;5092612;28;20520;-71
2022/01/05 13:02:47;;;;;;;4.27;1.53;;;;;;;;;;5092994;28;20397;-70
2022/01/05 13:05:13;;;;;;;5.00;1.77;;;;;;;;;;5091680;28;20931;-71
2022/01/05 13:07:41;;;;;;;8.50;2.20;;;;;;;;;;5092828;28;20889;-71
2022/01/05 13:10:14;;;;;;;2.77;1.63;;;;;;;;;;5092930;28;20401;-70
2022/01/05 13:12:40;;;;;;;5.07;1.90;;;;;;;;;;5092886;28;20510;-70
2022/01/05 13:15:09;;;;;;;3.00;1.63;;;;;;;;;;5092922;28;20484;-70
2022/01/05 13:17:36;;;;;;;6.43;2.20;;;;;;;;;;5092795;28;20410;-70
2022/01/05 13:20:13;;;;;;;8.93;2.30;;;;;;;;;;5092753;28;20464;-72
2022/01/05 13:22:44;;;;;;;5.53;2.30;;;;;;;;;;5092604;28;20488;-70
2022/01/05 13:25:10;;;;;;;4.00;1.67;;;;;;;;;;5092871;28;20400;-72
2022/01/05 13:27:41;;;;;;;7.47;2.00;;;;;;;;;;5091440;28;20490;-70
2022/01/05 13:30:09;;;;;;;5.27;2.07;;;;;;;;;;5092698;28;20451;-70
2022/01/05 13:32:35;;;;;;;12.73;2.70;;;;;;;;;;5092638;28;20400;-70
2022/01/05 13:35:08;;;;;;;5.80;2.50;;;;;;;;;;5091432;28;20503;-70
2022/01/05 13:37:37;;;;;;;4.17;1.70;;;;;;;;;;5091366;28;20401;-73
2022/01/05 13:40:07;;;;;;;3.93;1.73;;;;;;;;;;5092617;28;20472;-71
2022/01/05 13:42:35;;;;;;;5.80;1.83;;;;;;;;;;5092627;28;20405;-71
2022/01/05 13:45:01;;;;;;;2.40;1.60;;;;;;;;;;5092647;28;20397;-70
2022/01/05 13:47:27;;;;;;;7.27;1.80;;;;;;;;;;5091346;28;20462;-70
2022/01/05 13:50:13;;;;;;;5.73;2.13;;;;;;;;;;5092621;28;21013;-70
2022/01/05 13:52:39;;;;;;;3.97;2.20;;;;;;;;;;5095526;28;20412;-70
2022/01/05 13:55:06;;;;;;;4.90;1.73;;;;;;;;;;5094890;28;20436;-70
2022/01/05 13:57:33;;;;;;;3.43;1.70;;;;;;;;;;5096104;28;20404;-71
2022/01/05 14:00:00;;;;;;;4.03;1.67;;;;;;;;;;5095553;28;20472;-71
2022/01/05 14:02:30;;;;;;;5.70;2.07;;;;;;;;;;5095991;28;20413;-72
2022/01/05 14:05:00;;;;;;;6.70;1.87;;;;;;;;;;5094755;28;20803;-71
2022/01/05 14:07:28;;;;;;;2.60;1.60;;;;;;;;;;5095831;28;20416;-71
2022/01/05 14:10:05;;;;;;;4.33;2.07;;;;;;;;;;5095885;28;20812;-73
2022/01/05 14:12:31;;;;;;;7.17;1.80;;;;;;;;;;5095951;28;20385;-71
2022/01/05 14:14:58;;;;;;;3.80;1.70;;;;;;;;;;5095747;28;20459;-71
2022/01/05 14:17:24;;;;;;;5.50;2.07;;;;;;;;;;5094361;28;20400;-71
2022/01/05 14:19:50;;;;;;;5.10;2.80;;;;;;;;;;5095583;28;20468;-71
2022/01/05 14:22:19;;;;;;;11.40;2.00;;;;;;;;;;5095687;28;20887;-71
2022/01/05 14:24:46;;;;;;;7.40;2.43;;;;;;;;;;5095483;28;20407;-71
2022/01/05 14:27:16;;;;;;;3.53;1.70;;;;;;;;;;5094220;28;20488;-71
2022/01/05 14:29:47;;;;;;;5.70;1.90;;;;;;;;;;5095332;28;20421;-71
2022/01/05 14:32:13;;;;;;;3.20;1.30;;;;;;;;;;5095478;28;20409;-71
2022/01/05 14:34:41;;;;;;;5.60;1.93;;;;;;;;;;5095352;28;20424;-70
2022/01/05 14:37:09;;;;;;;7.20;2.47;;;;;;;;;;5094021;28;20550;-71
2022/01/05 14:39:39;;;;;;;5.05;1.55;;;;;;;;;;5095221;28;20403;-70
2022/01/05 14:42:08;;;;;;;4.30;1.67;;;;;;;;;;5095281;28;20238;-71
2022/01/05 14:44:35;;;;;;;5.13;1.60;;;;;;;;;;5095101;28;20405;-70
2022/01/05 14:47:02;;;;;;;9.37;2.40;;;;;;;;;;5095055;28;20179;-71